createdAt,value
2022-11-18T00:01:06.864Z,90.59
2022-11-18T00:03:34.797Z,93.44
2022-11-18T00:06:04.327Z,93.15
2022-11-18T00:08:31.787Z,94.06
2022-11-18T00:10:59.248Z,94.79
2022-11-18T00:13:44.338Z,94.96
2022-11-18T00:16:13.537Z,94.94
2022-11-18T00:18:41.055Z,93.57
2022-11-18T00:21:12.328Z,93.02
2022-11-18T00:23:40.522Z,94.42
2022-11-18T00:26:10.081Z,94.32
2022-11-18T00:28:37.840Z,95.61
2022-11-18T00:31:07.814Z,95.91
2022-11-18T00:33:36.832Z,94.18
2022-11-18T00:36:05.073Z,93.35
2022-11-18T00:38:34.123Z,92.35
2022-11-18T00:41:02.609Z,94.43
2022-11-18T00:43:30.022Z,93.69
2022-11-18T00:45:57.767Z,95.18
2022-11-18T00:48:25.310Z,93.31
2022-11-18T00:50:54.184Z,92.22
2022-11-18T00:53:23.334Z,92.23
2022-11-18T00:55:52.192Z,92.87
2022-11-18T00:58:20.247Z,93.18
2022-11-18T01:00:52.351Z,92.83
2022-11-18T01:03:20.745Z,91.97
2022-11-18T01:05:48.635Z,91.78
2022-11-18T01:08:17.781Z,91.69
2022-11-18T01:10:45.199Z,90.08
2022-11-18T01:13:20.937Z,91.37
2022-11-18T01:15:49.964Z,92.83
2022-11-18T01:18:18.160Z,93.00
2022-11-18T01:20:46.293Z,92.26
2022-11-18T01:23:14.694Z,92.16
2022-11-18T01:25:44.088Z,93.03
2022-11-18T01:28:12.468Z,93.62
2022-11-18T01:30:42.688Z,93.29
2022-11-18T01:33:10.219Z,91.55
2022-11-18T01:35:38.343Z,91.85
2022-11-18T01:38:07.007Z,92.09
2022-11-18T01:40:35.778Z,91.62
2022-11-18T01:43:03.411Z,92.38
2022-11-18T01:45:35.040Z,91.38
2022-11-18T01:48:09.384Z,91.77
2022-11-18T01:50:40.483Z,92.39
2022-11-18T01:53:12.963Z,91.12
2022-11-18T01:55:45.918Z,91.80
2022-11-18T01:58:20.542Z,91.50
2022-11-18T02:00:47.961Z,91.56
2022-11-18T02:03:17.829Z,89.94
2022-11-18T02:05:48.067Z,90.69
2022-11-18T02:08:16.706Z,91.19
2022-11-18T02:10:44.128Z,90.25
2022-11-18T02:13:12.676Z,91.48
2022-11-18T02:15:48.789Z,91.30
2022-11-18T02:18:29.122Z,91.19
2022-11-18T02:21:04.699Z,91.05
2022-11-18T02:23:58.598Z,91.03
2022-11-18T02:27:05.621Z,91.26
2022-11-18T02:29:40.466Z,90.57
2022-11-18T02:32:12.193Z,91.12
2022-11-18T02:35:16.310Z,91.24
2022-11-18T02:37:49.093Z,90.38
2022-11-18T02:40:23.295Z,91.25
2022-11-18T02:42:55.677Z,90.62
2022-11-18T02:45:26.734Z,90.39
2022-11-18T02:47:58.567Z,90.87
2022-11-18T02:50:30.091Z,91.38
2022-11-18T02:53:01.605Z,91.11
2022-11-18T02:55:31.759Z,90.88
2022-11-18T02:58:00.170Z,90.65
2022-11-18T03:00:29.150Z,91.05
2022-11-18T03:02:56.547Z,91.22
2022-11-18T03:05:32.140Z,91.25
2022-11-18T03:08:09.149Z,91.80
2022-11-18T03:10:44.069Z,91.20
2022-11-18T03:13:17.635Z,90.79
2022-11-18T03:15:54.258Z,90.03
2022-11-18T03:18:29.040Z,90.42
2022-11-18T03:21:03.690Z,91.31
2022-11-18T03:23:37.252Z,90.18
2022-11-18T03:26:10.149Z,92.35
2022-11-18T03:28:44.683Z,93.14
2022-11-18T03:31:19.289Z,93.23
2022-11-18T03:33:51.734Z,93.22
2022-11-18T03:36:23.089Z,94.57
2022-11-18T03:38:55.219Z,95.40
2022-11-18T03:41:25.194Z,96.37
2022-11-18T03:43:58.519Z,97.21
2022-11-18T03:46:35.211Z,97.64
2022-11-18T03:49:02.798Z,96.96
2022-11-18T03:51:34.458Z,96.06
2022-11-18T03:54:08.432Z,95.12
2022-11-18T03:56:42.158Z,94.73
2022-11-18T03:59:14.473Z,96.17
2022-11-18T04:01:49.692Z,96.61
2022-11-18T04:04:18.326Z,96.20
2022-11-18T04:06:49.630Z,95.69
2022-11-18T04:09:21.073Z,95.31
2022-11-18T04:12:03.541Z,95.42
2022-11-18T04:14:33.001Z,96.53
2022-11-18T04:17:06.332Z,97.14
2022-11-18T04:19:33.729Z,98.07
2022-11-18T04:22:01.098Z,97.25
2022-11-18T04:24:28.484Z,97.73
2022-11-18T04:26:55.907Z,98.31
2022-11-18T04:29:23.685Z,97.54
2022-11-18T04:31:51.245Z,97.74
2022-11-18T04:34:19.948Z,98.50
2022-11-18T04:36:47.337Z,98.16
2022-11-18T04:39:15.276Z,97.24
2022-11-18T04:41:58.131Z,95.96
2022-11-18T04:44:27.444Z,95.20
2022-11-18T04:46:56.071Z,95.99
2022-11-18T04:49:25.473Z,96.89
2022-11-18T04:51:53.688Z,98.09
2022-11-18T04:54:22.271Z,97.73
2022-11-18T04:56:50.292Z,96.79
2022-11-18T04:59:20.866Z,95.16
2022-11-18T05:01:48.886Z,97.23
2022-11-18T05:04:18.592Z,97.60
2022-11-18T05:06:47.584Z,98.93
2022-11-18T05:09:15.749Z,98.08
2022-11-18T05:12:00.824Z,94.83
2022-11-18T05:14:29.079Z,95.41
2022-11-18T05:16:58.608Z,96.62
2022-11-18T05:19:26.313Z,97.55
2022-11-18T05:21:55.203Z,97.49
2022-11-18T05:24:24.049Z,96.69
2022-11-18T05:26:52.098Z,96.41
2022-11-18T05:29:20.508Z,96.76
2022-11-18T05:31:48.355Z,96.15
2022-11-18T05:34:16.404Z,97.06
2022-11-18T05:36:43.807Z,96.07
2022-11-18T05:39:12.539Z,95.42
2022-11-18T05:41:57.611Z,95.38
2022-11-18T05:44:25.002Z,95.55
2022-11-18T05:46:52.597Z,94.29
2022-11-18T05:49:20.331Z,92.45
2022-11-18T05:51:47.965Z,92.33
2022-11-18T05:54:19.152Z,93.23
2022-11-18T05:56:46.555Z,93.84
2022-11-18T05:59:14.955Z,94.14
2022-11-18T06:01:46.076Z,93.65
2022-11-18T06:04:18.422Z,92.70
2022-11-18T06:06:49.069Z,91.05
2022-11-18T06:09:22.377Z,92.29
2022-11-18T06:11:54.028Z,91.18
2022-11-18T06:14:26.612Z,90.88
2022-11-18T06:16:58.255Z,90.02
2022-11-18T06:19:27.003Z,90.55
2022-11-18T06:21:55.030Z,89.90
2022-11-18T06:24:24.741Z,90.14
2022-11-18T06:26:52.748Z,90.36
2022-11-18T06:29:26.205Z,90.17
2022-11-18T06:31:55.182Z,89.27
2022-11-18T06:34:23.422Z,86.28
2022-11-18T06:36:50.803Z,85.32
2022-11-18T06:39:18.307Z,87.41
2022-11-18T06:41:47.215Z,88.67
2022-11-18T06:44:14.222Z,87.88
2022-11-18T06:46:56.919Z,89.10
2022-11-18T06:49:24.494Z,88.71
2022-11-18T06:51:52.319Z,88.35
2022-11-18T06:54:19.881Z,87.80
2022-11-18T06:56:48.623Z,87.25
2022-11-18T06:59:21.577Z,88.24
2022-11-18T07:01:49.078Z,87.46
2022-11-18T07:04:16.495Z,87.58
2022-11-18T07:06:43.900Z,85.89
2022-11-18T07:09:11.308Z,86.21
2022-11-18T07:11:41.186Z,86.41
2022-11-18T07:14:10.464Z,86.62
2022-11-18T07:16:38.337Z,86.94
2022-11-18T07:19:10.634Z,86.64
2022-11-18T07:21:38.847Z,86.51
2022-11-18T07:24:08.159Z,85.46
2022-11-18T07:26:36.363Z,85.65
2022-11-18T07:29:03.875Z,84.89
2022-11-18T07:31:33.857Z,85.63
2022-11-18T07:34:01.319Z,85.69
2022-11-18T07:36:35.439Z,85.15
2022-11-18T07:39:05.502Z,84.54
2022-11-18T07:41:33.915Z,84.43
2022-11-18T07:44:02.911Z,84.64
2022-11-18T07:46:33.150Z,84.50
2022-11-18T07:49:02.020Z,84.34
2022-11-18T07:51:31.629Z,83.77
2022-11-18T07:53:59.477Z,84.15
2022-11-18T07:56:27.745Z,84.71
2022-11-18T07:58:56.449Z,84.39
2022-11-18T08:01:25.537Z,83.07
2022-11-18T08:03:54.321Z,84.34
2022-11-18T08:06:22.001Z,83.39
2022-11-18T08:08:49.723Z,83.32
2022-11-18T08:11:22.996Z,84.07
2022-11-18T08:13:50.771Z,82.76
2022-11-18T08:16:20.173Z,81.73
2022-11-18T08:18:48.207Z,82.48
2022-11-18T08:21:18.774Z,81.79
2022-11-18T08:23:51.190Z,83.53
2022-11-18T08:26:18.989Z,83.08
2022-11-18T08:28:46.915Z,82.47
2022-11-18T08:31:16.887Z,82.81
2022-11-18T08:33:44.505Z,83.55
2022-11-18T08:36:15.923Z,83.69
2022-11-18T08:38:44.937Z,83.95
2022-11-18T08:41:14.073Z,84.05
2022-11-18T08:43:41.592Z,83.43
2022-11-18T08:46:09.050Z,82.92
2022-11-18T08:48:36.677Z,83.39
2022-11-18T08:51:05.942Z,83.63
2022-11-18T08:53:33.813Z,84.25
2022-11-18T08:56:02.527Z,83.52
2022-11-18T08:58:30.023Z,84.14
2022-11-18T09:00:57.492Z,83.69
2022-11-18T09:03:25.051Z,84.12
2022-11-18T09:05:52.461Z,83.89
2022-11-18T09:08:19.938Z,83.80
2022-11-18T09:10:47.425Z,83.60
2022-11-18T09:13:44.811Z,83.73
2022-11-18T09:16:04.916Z,83.39
2022-11-18T09:18:32.610Z,82.90
2022-11-18T09:21:02.220Z,83.69
2022-11-18T09:23:29.626Z,82.26
2022-11-18T09:26:00.135Z,83.37
2022-11-18T09:28:29.248Z,84.67
2022-11-18T09:30:56.776Z,83.94
2022-11-18T09:33:24.297Z,83.54
2022-11-18T09:35:51.712Z,83.45
2022-11-18T09:38:19.143Z,83.76
2022-11-18T09:40:57.356Z,83.27
2022-11-18T09:43:36.202Z,83.37
2022-11-18T09:46:16.457Z,82.08
2022-11-18T09:49:01.439Z,81.74
2022-11-18T09:51:31.315Z,82.46
2022-11-18T09:53:58.723Z,82.34
2022-11-18T09:56:28.197Z,83.96
2022-11-18T09:58:57.882Z,81.19
2022-11-18T10:01:27.696Z,79.86
2022-11-18T10:03:55.515Z,81.66
2022-11-18T10:06:26.542Z,81.78
2022-11-18T10:09:06.250Z,81.92
2022-11-18T10:11:41.749Z,81.89
2022-11-18T10:14:25.835Z,81.10
2022-11-18T10:17:02.306Z,81.77
2022-11-18T10:19:38.618Z,81.59
2022-11-18T10:22:24.362Z,81.38
2022-11-18T10:24:54.352Z,80.37
2022-11-18T10:27:22.548Z,81.31
2022-11-18T10:29:56.175Z,81.49
2022-11-18T10:32:23.881Z,81.21
2022-11-18T10:34:53.524Z,79.67
2022-11-18T10:37:45.424Z,79.32
2022-11-18T10:40:25.533Z,79.36
2022-11-18T10:42:53.015Z,81.46
2022-11-18T10:45:28.724Z,80.19
2022-11-18T10:47:59.467Z,79.94
2022-11-18T10:50:38.043Z,79.70
2022-11-18T10:53:06.450Z,78.33
2022-11-18T10:55:34.664Z,77.67
2022-11-18T10:58:08.673Z,76.83
2022-11-18T11:00:42.186Z,79.78
2022-11-18T11:03:27.852Z,79.99
2022-11-18T11:06:22.931Z,81.22
2022-11-18T11:08:51.887Z,81.09
2022-11-18T11:11:28.590Z,80.31
2022-11-18T11:14:05.667Z,79.67
2022-11-18T11:16:40.503Z,81.62
2022-11-18T11:19:12.373Z,81.87
2022-11-18T11:21:39.782Z,81.61
2022-11-18T11:24:12.634Z,80.05
2022-11-18T11:30:04.359Z,81.64
2022-11-18T11:32:44.210Z,80.89
2022-11-18T11:35:18.105Z,81.35
2022-11-18T11:37:54.491Z,81.52
2022-11-18T11:40:30.565Z,79.60
2022-11-18T11:43:11.627Z,80.50
2022-11-18T11:45:54.926Z,80.16
2022-11-18T11:48:39.924Z,78.93
2022-11-18T11:51:16.051Z,78.97
2022-11-18T11:54:20.047Z,79.56
2022-11-18T11:56:52.416Z,79.16
2022-11-18T11:59:29.213Z,78.31
2022-11-18T12:02:16.062Z,79.57
2022-11-18T12:04:47.540Z,78.73
2022-11-18T12:07:18.982Z,79.44
2022-11-18T12:10:06.744Z,79.22
2022-11-18T12:12:38.605Z,78.30
2022-11-18T12:15:24.075Z,78.34
2022-11-18T12:17:59.845Z,79.43
2022-11-18T12:20:44.871Z,78.22
2022-11-18T12:23:18.521Z,77.55
2022-11-18T12:25:55.335Z,77.69
2022-11-18T12:28:29.347Z,75.42
2022-11-18T12:31:35.400Z,74.64
2022-11-18T12:34:19.648Z,74.03
2022-11-18T12:36:48.748Z,75.88
2022-11-18T12:39:49.172Z,74.99
2022-11-18T12:43:03.754Z,74.10
2022-11-18T12:45:58.813Z,75.40
2022-11-18T12:48:35.324Z,75.42
2022-11-18T12:51:04.337Z,76.08
2022-11-18T12:53:38.700Z,76.03
2022-11-18T12:56:22.200Z,75.69
2022-11-18T12:58:51.944Z,76.48
2022-11-18T13:01:22.156Z,76.24
2022-11-18T13:03:49.743Z,76.43
2022-11-18T13:06:25.943Z,75.20
2022-11-18T13:08:58.827Z,75.67
2022-11-18T13:11:42.101Z,74.86
2022-11-18T13:14:33.838Z,74.32
2022-11-18T13:17:19.194Z,73.90
2022-11-18T13:19:56.591Z,72.95
2022-11-18T13:22:41.166Z,74.01
2022-11-18T13:25:23.712Z,73.33
2022-11-18T13:27:58.113Z,73.65
2022-11-18T13:30:25.657Z,73.07
2022-11-18T13:32:58.737Z,73.43
2022-11-18T13:35:29.127Z,74.05
2022-11-18T13:37:58.649Z,74.43
2022-11-18T13:40:30.057Z,74.24
2022-11-18T13:42:57.570Z,73.70
2022-11-18T13:45:28.772Z,72.96
2022-11-18T13:48:02.303Z,73.91
2022-11-18T13:50:34.274Z,74.24
2022-11-18T13:53:09.423Z,73.42
2022-11-18T13:55:41.526Z,74.32
2022-11-18T13:58:28.050Z,73.77
2022-11-18T14:00:57.686Z,73.69
2022-11-18T14:03:28.996Z,72.67
2022-11-18T14:05:57.237Z,74.34
2022-11-18T14:08:29.086Z,73.74
2022-11-18T14:10:58.889Z,72.90
2022-11-18T14:13:29.113Z,72.17
2022-11-18T14:15:58.441Z,71.55
2022-11-18T14:18:32.056Z,72.77
2022-11-18T14:21:00.794Z,72.91
2022-11-18T14:23:31.105Z,72.48
2022-11-18T14:26:01.948Z,71.33
2022-11-18T14:28:33.842Z,71.58
2022-11-18T14:31:04.838Z,73.03
2022-11-18T14:33:33.127Z,72.31
2022-11-18T14:36:02.542Z,71.75
2022-11-18T14:38:47.645Z,72.12
2022-11-18T14:41:44.246Z,72.14
2022-11-18T14:44:13.313Z,71.95
2022-11-18T14:46:43.181Z,72.14
2022-11-18T14:49:14.641Z,72.12
2022-11-18T14:51:42.042Z,72.25
2022-11-18T14:54:13.757Z,72.30
2022-11-18T14:56:43.606Z,72.50
2022-11-18T14:59:14.030Z,71.91
2022-11-18T15:01:42.489Z,72.36
2022-11-18T15:04:10.403Z,71.75
2022-11-18T15:06:39.646Z,72.94
2022-11-18T15:09:08.075Z,72.24
2022-11-18T15:11:35.745Z,72.64
2022-11-18T15:14:04.551Z,71.96
2022-11-18T15:16:33.520Z,72.54
2022-11-18T15:19:04.016Z,73.31
2022-11-18T15:21:31.806Z,72.18
2022-11-18T15:23:59.227Z,72.28
2022-11-18T15:26:28.702Z,73.25
2022-11-18T15:28:57.870Z,72.34
2022-11-18T15:31:26.935Z,71.57
2022-11-18T15:33:54.821Z,71.70
2022-11-18T15:36:23.803Z,69.52
2022-11-18T15:38:52.162Z,70.89
2022-11-18T15:41:21.453Z,69.85
2022-11-18T15:43:48.944Z,68.47
2022-11-18T15:46:17.439Z,70.80
2022-11-18T15:48:46.920Z,70.46
2022-11-18T15:51:15.217Z,70.23
2022-11-18T15:53:42.609Z,70.32
2022-11-18T15:56:27.789Z,70.76
2022-11-18T15:58:57.189Z,71.60
2022-11-18T16:01:25.603Z,70.51
2022-11-18T16:03:54.610Z,68.93
2022-11-18T16:06:22.295Z,69.39
2022-11-18T16:08:54.433Z,69.75
2022-11-18T16:11:42.850Z,69.49
2022-11-18T16:14:13.078Z,70.39
2022-11-18T16:16:42.746Z,71.74
2022-11-18T16:19:13.206Z,70.35
2022-11-18T16:21:43.305Z,68.98
2022-11-18T16:24:15.015Z,69.08
2022-11-18T16:26:42.723Z,68.17
2022-11-18T16:29:12.369Z,67.81
2022-11-18T16:31:39.930Z,69.72
2022-11-18T16:34:08.143Z,70.88
2022-11-18T16:36:37.216Z,71.28
2022-11-18T16:39:06.179Z,69.40
2022-11-18T16:41:33.588Z,69.85
2022-11-18T16:44:03.609Z,69.84
2022-11-18T16:46:32.443Z,70.14
2022-11-18T16:49:00.527Z,69.10
2022-11-18T16:51:29.187Z,71.31
2022-11-18T16:53:59.491Z,71.81
2022-11-18T16:56:28.952Z,69.34
2022-11-18T16:59:00.861Z,68.83
2022-11-18T17:01:29.877Z,71.27
2022-11-18T17:04:00.497Z,70.40
2022-11-18T17:06:28.242Z,70.43
2022-11-18T17:08:55.638Z,68.71
2022-11-18T17:11:24.355Z,70.11
2022-11-18T17:13:56.435Z,69.94
2022-11-18T17:16:26.033Z,68.40
2022-11-18T17:18:57.678Z,69.08
2022-11-18T17:21:26.394Z,69.59
2022-11-18T17:23:54.723Z,69.53
2022-11-18T17:26:25.074Z,70.13
2022-11-18T17:28:52.686Z,69.24
2022-11-18T17:31:21.767Z,70.06
2022-11-18T17:33:50.529Z,70.15
2022-11-18T17:36:20.197Z,68.78
2022-11-18T17:38:49.511Z,69.17
2022-11-18T17:41:32.851Z,68.76
2022-11-18T17:44:03.563Z,69.14
2022-11-18T17:46:36.343Z,70.49
2022-11-18T17:49:07.851Z,69.09
2022-11-18T17:51:35.237Z,70.43
2022-11-18T17:54:02.902Z,69.51
2022-11-18T17:56:30.326Z,69.58
2022-11-18T17:58:58.007Z,69.79
2022-11-18T18:01:26.845Z,72.03
2022-11-18T18:03:54.384Z,71.53
2022-11-18T18:06:21.926Z,71.59
2022-11-18T18:08:49.619Z,70.33
2022-11-18T18:11:18.683Z,69.62
2022-11-18T18:14:04.444Z,69.18
2022-11-18T18:16:33.891Z,70.02
2022-11-18T18:19:02.762Z,70.06
2022-11-18T18:21:30.435Z,69.95
2022-11-18T18:23:57.846Z,70.46
2022-11-18T18:26:30.919Z,70.66
2022-11-18T18:28:59.359Z,70.49
2022-11-18T18:31:26.842Z,69.48
2022-11-18T18:33:56.086Z,70.50
2022-11-18T18:36:25.093Z,71.74
2022-11-18T18:38:53.302Z,70.91
2022-11-18T18:41:22.797Z,70.83
2022-11-18T18:43:51.193Z,70.49
2022-11-18T18:46:29.101Z,71.56
2022-11-18T18:49:00.953Z,81.92
2022-11-18T18:51:30.338Z,73.99
2022-11-18T18:53:58.510Z,72.19
2022-11-18T18:56:26.577Z,70.44
2022-11-18T18:58:54.095Z,71.70
2022-11-18T19:01:22.031Z,72.82
2022-11-18T19:04:01.607Z,71.03
2022-11-18T19:09:19.144Z,70.41
2022-11-18T19:12:04.511Z,70.11
2022-11-18T19:14:34.070Z,70.79
2022-11-18T19:17:08.183Z,70.14
2022-11-18T19:19:57.235Z,70.21
2022-11-18T19:22:25.578Z,69.88
2022-11-18T19:24:53.847Z,69.57
2022-11-18T19:27:21.649Z,69.88
2022-11-18T19:29:49.099Z,69.92
2022-11-18T19:32:16.810Z,69.90
2022-11-18T19:34:45.633Z,70.09
2022-11-18T19:37:13.059Z,71.14
2022-11-18T19:39:40.476Z,70.50
2022-11-18T19:42:10.597Z,71.31
2022-11-18T19:44:38.113Z,71.26
2022-11-18T19:47:08.823Z,73.58
2022-11-18T19:49:36.314Z,78.55
2022-11-18T19:52:05.063Z,71.54
2022-11-18T19:54:32.536Z,71.46
2022-11-18T19:57:00.961Z,71.20
2022-11-18T19:59:28.491Z,69.63
2022-11-18T20:01:56.070Z,69.76
2022-11-18T20:04:23.752Z,70.24
2022-11-18T20:06:51.310Z,69.47
2022-11-18T20:09:20.517Z,70.55
2022-11-18T20:11:49.114Z,71.16
2022-11-18T20:14:16.521Z,70.33
2022-11-18T20:16:43.958Z,71.49
2022-11-18T20:19:13.556Z,70.52
2022-11-18T20:21:43.248Z,70.89
2022-11-18T20:24:16.851Z,70.17
2022-11-18T20:26:46.154Z,70.43
2022-11-18T20:29:13.891Z,71.52
2022-11-18T20:31:42.616Z,71.46
2022-11-18T20:34:14.310Z,70.97
2022-11-18T20:36:42.317Z,70.29
2022-11-18T20:39:17.424Z,70.48
2022-11-18T20:42:10.365Z,70.77
2022-11-18T20:44:37.825Z,70.52
2022-11-18T20:47:05.270Z,70.68
2022-11-18T20:49:32.678Z,71.06
2022-11-18T20:52:00.173Z,71.06
2022-11-18T20:54:27.650Z,70.69
2022-11-18T20:56:56.431Z,72.02
2022-11-18T20:59:23.880Z,70.53
2022-11-18T21:01:51.696Z,71.51
2022-11-18T21:04:19.303Z,72.48
2022-11-18T21:06:47.392Z,71.47
2022-11-18T21:09:16.997Z,73.59
2022-11-18T21:11:44.850Z,73.59
2022-11-18T21:14:24.106Z,73.11
2022-11-18T21:16:52.937Z,72.58
2022-11-18T21:19:20.813Z,72.89
2022-11-18T21:21:51.854Z,73.50
2022-11-18T21:24:20.689Z,73.52
2022-11-18T21:26:49.871Z,73.79
2022-11-18T21:29:19.510Z,74.30
2022-11-18T21:31:47.996Z,72.82
2022-11-18T21:34:16.293Z,74.90
2022-11-18T21:36:47.860Z,74.78
2022-11-18T21:39:18.111Z,73.92
2022-11-18T21:41:49.352Z,72.50
2022-11-18T21:44:21.015Z,72.42
2022-11-18T21:46:48.423Z,73.41
2022-11-18T21:49:16.409Z,73.20
2022-11-18T21:51:44.800Z,72.14
2022-11-18T21:54:12.909Z,72.37
2022-11-18T21:56:40.500Z,73.21
2022-11-18T21:59:07.985Z,71.54
2022-11-18T22:01:36.809Z,72.32
2022-11-18T22:04:05.813Z,71.22
2022-11-18T22:06:34.532Z,71.22
2022-11-18T22:09:03.554Z,70.93
2022-11-18T22:11:31.331Z,71.76
2022-11-18T22:13:59.011Z,72.66
2022-11-18T22:16:27.827Z,71.43
2022-11-18T22:19:03.680Z,70.40
2022-11-18T22:21:32.640Z,71.97
2022-11-18T22:24:01.357Z,71.85
2022-11-18T22:26:29.884Z,72.25
2022-11-18T22:28:58.978Z,72.10
2022-11-18T22:31:28.520Z,73.88
2022-11-18T22:33:57.564Z,73.39
2022-11-18T22:36:27.322Z,72.84
2022-11-18T22:38:55.743Z,73.34
2022-11-18T22:41:42.434Z,73.08
2022-11-18T22:44:11.124Z,72.82
2022-11-18T22:46:40.999Z,72.23
2022-11-18T22:49:11.804Z,71.97
2022-11-18T22:51:40.295Z,72.29
2022-11-18T22:54:38.388Z,72.00
2022-11-18T22:56:56.594Z,71.88
2022-11-18T22:59:24.333Z,75.48
2022-11-18T23:01:52.494Z,89.66
2022-11-18T23:04:21.350Z,76.35
2022-11-18T23:06:49.082Z,72.54
2022-11-18T23:09:17.013Z,69.77
2022-11-18T23:12:02.617Z,67.69
2022-11-18T23:14:30.255Z,58.79
2022-11-18T23:16:57.723Z,62.96
2022-11-18T23:19:26.585Z,65.11
2022-11-18T23:21:54.028Z,66.59
2022-11-18T23:24:21.517Z,67.50
2022-11-18T23:26:49.220Z,68.22
2022-11-18T23:29:17.783Z,69.89
2022-11-18T23:31:45.858Z,70.17
2022-11-18T23:34:15.239Z,70.89
2022-11-18T23:36:44.066Z,71.14
2022-11-18T23:39:11.842Z,71.32
2022-11-18T23:41:39.759Z,71.39
2022-11-18T23:44:07.588Z,70.83
2022-11-18T23:46:35.304Z,71.77
2022-11-18T23:49:02.769Z,71.83
2022-11-18T23:51:30.154Z,71.78
2022-11-18T23:53:59.203Z,72.55
2022-11-18T23:56:28.074Z,73.98
2022-11-18T23:58:57.794Z,72.78
